| time (UTC) | temp F | wind direction | speed MPH | gust MPH | rain 1hr in | rain 24hr in | rain mn in | humidity % | barometer mb |
| 20260509211559 | 68 | 0 | 0.0 | 2.0 | 0.00 | 0.91 | 0.83 | 94 | 1012.3 |
| 20260509211059 | 68 | 0 | 0.0 | 2.0 | 0.00 | 0.91 | 0.83 | 95 | 1012.5 |
| 20260509210556 | 67 | 0 | 0.0 | 1.0 | 0.00 | 0.91 | 0.83 | 96 | 1012.4 |
| 20260509210114 | 67 | 149 | 0.0 | 1.0 | 0.00 | 0.91 | 0.83 | 96 | 1012.2 |
| 20260509205556 | 67 | 0 | 0.0 | 1.0 | 0.00 | 0.92 | 0.83 | 96 | 1012.5 |
| 20260509205056 | 67 | 155 | 0.0 | 1.0 | 0.00 | 0.92 | 0.83 | 97 | 1012.2 |
| 20260509204559 | 67 | 0 | 0.0 | 1.0 | 0.00 | 0.92 | 0.83 | 96 | 1012.2 |
| 20260509204057 | 67 | 0 | 0.0 | 2.0 | 0.00 | 0.92 | 0.83 | 96 | 1012.3 |
| 20260509203556 | 67 | 0 | 0.0 | 2.0 | 0.00 | 0.92 | 0.83 | 96 | 1012.4 |
| 20260509203056 | 67 | 0 | 0.0 | 2.0 | 0.00 | 0.92 | 0.83 | 98 | 1012.3 |
| 20260509202557 | 67 | 140 | 0.0 | 2.0 | 0.00 | 0.92 | 0.83 | 96 | 1012.3 |
| 20260509202057 | 67 | 0 | 0.0 | 2.0 | 0.00 | 0.92 | 0.83 | 96 | 1012.3 |
| 20260509201601 | 67 | 143 | 0.0 | 4.0 | 0.00 | 0.92 | 0.83 | 96 | 1012.2 |
| 20260509201057 | 67 | 141 | 1.0 | 4.0 | 0.00 | 0.92 | 0.83 | 95 | 1012.2 |
| 20260509200556 | 67 | 144 | 1.0 | 4.0 | 0.00 | 0.92 | 0.83 | 96 | 1012.5 |
| 20260509200103 | 67 | 0 | 1.0 | 3.0 | 0.00 | 0.92 | 0.83 | 99 | 1012.5 |
| 20260509195557 | 67 | 144 | 0.0 | 5.0 | 0.00 | 1.00 | 0.83 | 97 | 1012.8 |
| 20260509195058 | 67 | 0 | 2.0 | 5.0 | 0.00 | 1.00 | 0.83 | 96 | 1012.4 |
| 20260509194603 | 67 | 151 | 0.0 | 1.0 | 0.00 | 1.00 | 0.83 | 96 | 1012.4 |
| 20260509194058 | 67 | 0 | 0.0 | 3.0 | 0.00 | 1.00 | 0.83 | 97 | 1012.7 |
| 20260509193558 | 66 | 0 | 0.0 | 3.0 | 0.01 | 1.00 | 0.83 | 97 | 1012.3 |
| 20260509193108 | 66 | 0 | 0.0 | 1.0 | 0.01 | 1.00 | 0.83 | 97 | 1012.2 |
| 20260509192600 | 66 | 0 | 0.0 | 2.0 | 0.01 | 1.00 | 0.83 | 97 | 1012.5 |
| 20260509192057 | 66 | 2 | 0.0 | 2.0 | 0.01 | 1.00 | 0.83 | 97 | 1012.4 |
| 20260509191603 | 66 | 18 | 0.0 | 5.0 | 0.01 | 1.00 | 0.83 | 97 | 1012.3 |
| 20260509191059 | 66 | 351 | 1.0 | 5.0 | 0.01 | 1.00 | 0.83 | 97 | 1012.4 |
| 20260509190554 | 66 | 106 | 1.0 | 5.0 | 0.01 | 1.00 | 0.83 | 97 | 1011.5 |
| 20260509190109 | 65 | 147 | 1.0 | 4.0 | 0.01 | 1.00 | 0.83 | 97 | 1011.7 |
| 20260509185555 | 65 | 129 | 2.0 | 4.0 | 0.01 | 1.01 | 0.83 | 97 | 1011.9 |
| 20260509185056 | 65 | 131 | 0.0 | 2.0 | 0.01 | 1.01 | 0.83 | 97 | 1012.5 |
| 20260509184603 | 65 | 349 | 0.0 | 5.0 | 0.01 | 1.01 | 0.83 | 97 | 1012.8 |
| 20260509184059 | 65 | 0 | 1.0 | 5.0 | 0.01 | 1.01 | 0.83 | 97 | 1012.9 |
| 20260509183558 | 65 | 142 | 2.0 | 7.0 | 0.00 | 1.00 | 0.82 | 97 | 1013.2 |
| 20260509183100 | 65 | 238 | 1.0 | 7.0 | 0.00 | 1.00 | 0.82 | 97 | 1013.2 |
| 20260509182559 | 65 | 134 | 2.0 | 6.0 | 0.00 | 1.00 | 0.82 | 97 | 1012.9 |
| 20260509182059 | 65 | 119 | 0.0 | 3.0 | 0.00 | 1.00 | 0.82 | 97 | 1012.7 |
| 20260509181601 | 64 | 137 | 1.0 | 3.0 | 0.00 | 1.00 | 0.82 | 97 | 1012.9 |
| 20260509181058 | 64 | 139 | 2.0 | 3.0 | 0.00 | 1.00 | 0.82 | 97 | 1013.1 |
| 20260509180558 | 64 | 143 | 0.0 | 3.0 | 0.01 | 1.00 | 0.82 | 97 | 1013.0 |
| 20260509180100 | 64 | 139 | 1.0 | 4.0 | 0.01 | 1.00 | 0.82 | 97 | 1013.2 |
| 20260509175600 | 64 | 170 | 1.0 | 4.0 | 0.02 | 1.00 | 0.82 | 97 | 1013.3 |
| 20260509175057 | 64 | 153 | 2.0 | 4.0 | 0.02 | 1.00 | 0.82 | 97 | 1013.3 |
| 20260509174610 | 64 | 166 | 0.0 | 3.0 | 0.03 | 1.00 | 0.82 | 97 | 1013.4 |
| 20260509174055 | 64 | 141 | 0.0 | 3.0 | 0.03 | 1.00 | 0.82 | 97 | 1013.6 |
| 20260509173600 | 64 | 148 | 1.0 | 4.0 | 0.03 | 1.00 | 0.82 | 97 | 1013.4 |
| 20260509173103 | 64 | 0 | 0.0 | 4.0 | 0.03 | 1.00 | 0.82 | 97 | 1013.7 |
| 20260509172558 | 64 | 150 | 1.0 | 4.0 | 0.03 | 1.00 | 0.82 | 97 | 1013.9 |
| 20260509172059 | 64 | 150 | 0.0 | 3.0 | 0.04 | 1.00 | 0.82 | 97 | 1014.2 |
| 20260509171558 | 64 | 131 | 1.0 | 3.0 | 0.04 | 1.00 | 0.82 | 97 | 1014.3 |
| 20260509171058 | 63 | 169 | 2.0 | 3.0 | 0.04 | 1.00 | 0.82 | 97 | 1014.5 |
| 20260509170558 | 63 | 0 | 0.0 | 2.0 | 0.03 | 0.99 | 0.81 | 97 | 1014.3 |
| 20260509170108 | 63 | 143 | 0.0 | 4.0 | 0.03 | 0.99 | 0.81 | 97 | 1014.4 |
| 20260509165600 | 63 | 128 | 1.0 | 4.0 | 0.02 | 0.98 | 0.80 | 97 | 1014.3 |
| 20260509165058 | 63 | 152 | 1.0 | 4.0 | 0.02 | 0.98 | 0.80 | 97 | 1014.2 |
| 20260509164559 | 63 | 144 | 2.0 | 5.0 | 0.01 | 0.97 | 0.79 | 97 | 1014.1 |
| 20260509164058 | 63 | 0 | 3.0 | 5.0 | 0.03 | 0.97 | 0.79 | 97 | 1014.1 |
| 20260509163558 | 63 | 167 | 3.0 | 6.0 | 0.04 | 0.97 | 0.79 | 97 | 1014.1 |
| 20260509163059 | 63 | 161 | 2.0 | 6.0 | 0.06 | 0.97 | 0.79 | 97 | 1014.2 |
| 20260509162558 | 63 | 138 | 3.0 | 6.0 | 0.07 | 0.97 | 0.79 | 97 | 1014.1 |
| 20260509162058 | 63 | 150 | 4.0 | 6.0 | 0.07 | 0.96 | 0.78 | 97 | 1013.9 |
| 20260509161600 | 63 | 146 | 3.0 | 5.0 | 0.08 | 0.96 | 0.78 | 97 | 1013.9 |
| 20260509161057 | 63 | 149 | 2.0 | 4.0 | 0.10 | 0.96 | 0.78 | 97 | 1014.3 |
| 20260509160558 | 63 | 141 | 0.0 | 2.0 | 0.12 | 0.96 | 0.78 | 97 | 1014.6 |
| 20260509160058 | 63 | 139 | 0.0 | 2.0 | 0.14 | 0.96 | 0.78 | 97 | 1014.6 |
| 20260509155558 | 63 | 139 | 1.0 | 3.0 | 0.17 | 0.96 | 0.78 | 97 | 1014.9 |
| 20260509155058 | 63 | 148 | 1.0 | 3.0 | 0.20 | 0.96 | 0.78 | 97 | 1015.1 |
| 20260509154601 | 63 | 139 | 1.0 | 3.0 | 0.23 | 0.96 | 0.78 | 97 | 1015.0 |
| 20260509154056 | 63 | 153 | 0.0 | 1.0 | 0.24 | 0.94 | 0.76 | 97 | 1014.9 |
| 20260509153557 | 63 | 0 | 0.0 | 0.0 | 0.28 | 0.93 | 0.75 | 97 | 1014.8 |
| 20260509153102 | 63 | 0 | 0.0 | 1.0 | 0.34 | 0.91 | 0.73 | 97 | 1014.8 |
| 20260509152559 | 63 | 0 | 0.0 | 1.0 | 0.39 | 0.90 | 0.72 | 97 | 1015.1 |
| 20260509152058 | 63 | 0 | 0.0 | 1.0 | 0.48 | 0.89 | 0.71 | 97 | 1015.4 |
| 20260509151604 | 62 | 0 | 0.0 | 0.0 | 0.51 | 0.88 | 0.70 | 97 | 1015.3 |
| 20260509151057 | 62 | 0 | 0.0 | 1.0 | 0.50 | 0.86 | 0.68 | 97 | 1015.2 |
| 20260509150557 | 63 | 0 | 0.0 | 1.0 | 0.48 | 0.84 | 0.66 | 97 | 1015.3 |
| 20260509150100 | 63 | 13 | 0.0 | 1.0 | 0.46 | 0.82 | 0.64 | 97 | 1015.4 |
| 20260509145559 | 63 | 0 | 0.0 | 2.0 | 0.42 | 0.78 | 0.60 | 97 | 1015.6 |
| 20260509145103 | 63 | 352 | 0.0 | 2.0 | 0.40 | 0.76 | 0.58 | 97 | 1015.5 |
| 20260509144605 | 63 | 0 | 0.0 | 3.0 | 0.37 | 0.73 | 0.55 | 97 | 1015.4 |
| 20260509144058 | 63 | 332 | 0.0 | 8.0 | 0.35 | 0.70 | 0.52 | 97 | 1015.1 |
| 20260509143600 | 63 | 303 | 1.0 | 9.0 | 0.30 | 0.65 | 0.47 | 97 | 1015.5 |
| 20260509143058 | 63 | 276 | 2.0 | 9.0 | 0.22 | 0.57 | 0.39 | 97 | 1015.7 |
| 20260509142558 | 63 | 346 | 4.0 | 9.0 | 0.16 | 0.51 | 0.33 | 97 | 1015.5 |
| 20260509142058 | 63 | 338 | 3.0 | 5.0 | 0.06 | 0.41 | 0.23 | 97 | 1015.3 |
| 20260509141557 | 64 | 345 | 1.0 | 2.0 | 0.02 | 0.37 | 0.19 | 97 | 1015.2 |
| 20260509141100 | 64 | 0 | 0.0 | 1.0 | 0.05 | 0.36 | 0.18 | 97 | 1014.4 |
| 20260509140557 | 64 | 0 | 0.0 | 3.0 | 0.12 | 0.36 | 0.18 | 97 | 1014.0 |
| 20260509140107 | 64 | 0 | 0.0 | 3.0 | 0.15 | 0.36 | 0.18 | 97 | 1014.0 |
| 20260509135558 | 63 | 99 | 1.0 | 3.0 | 0.15 | 0.36 | 0.18 | 97 | 1014.0 |
| 20260509135057 | 63 | 94 | 1.0 | 2.0 | 0.15 | 0.36 | 0.18 | 97 | 1014.1 |
| 20260509134629 | 63 | 105 | 0.0 | 3.0 | 0.16 | 0.36 | 0.18 | 97 | 1014.0 |
| 20260509134059 | 63 | 0 | 0.0 | 3.0 | 0.17 | 0.35 | 0.17 | 97 | 1013.9 |
| 20260509133558 | 63 | 102 | 0.0 | 4.0 | 0.17 | 0.35 | 0.17 | 97 | 1013.7 |
| 20260509133102 | 63 | 0 | 0.0 | 4.0 | 0.17 | 0.35 | 0.17 | 97 | 1013.9 |
| 20260509132559 | 63 | 98 | 0.0 | 2.0 | 0.17 | 0.35 | 0.17 | 97 | 1014.2 |
| 20260509132058 | 63 | 135 | 0.0 | 2.0 | 0.17 | 0.35 | 0.17 | 97 | 1014.3 |
| 20260509131607 | 63 | 82 | 0.0 | 2.0 | 0.17 | 0.35 | 0.17 | 97 | 1014.3 |
| 20260509131058 | 63 | 0 | 0.0 | 2.0 | 0.13 | 0.31 | 0.13 | 97 | 1014.5 |
| 20260509130558 | 63 | 0 | 0.0 | 2.0 | 0.06 | 0.24 | 0.06 | 97 | 1014.5 |
| 20260509130104 | 63 | 0 | 0.0 | 2.0 | 0.03 | 0.21 | 0.03 | 97 | 1014.5 |
| 20260509125558 | 63 | 114 | 0.0 | 2.0 | 0.03 | 0.21 | 0.03 | 97 | 1014.5 |
| 20260509125058 | 63 | 46 | 0.0 | 2.0 | 0.03 | 0.21 | 0.03 | 97 | 1014.6 |
| 20260509124605 | 63 | 356 | 1.0 | 3.0 | 0.02 | 0.20 | 0.02 | 97 | 1014.7 |
| 20260509124055 | 63 | 12 | 1.0 | 5.0 | 0.00 | 0.18 | 0.00 | 97 | 1014.8 |
| 20260509123602 | 63 | 359 | 2.0 | 5.0 | 0.00 | 0.18 | 0.00 | 97 | 1014.9 |
| 20260509123057 | 63 | 105 | 1.0 | 4.0 | 0.00 | 0.18 | 0.00 | 97 | 1014.5 |
| 20260509122556 | 63 | 28 | 0.0 | 4.0 | 0.00 | 0.18 | 0.00 | 97 | 1014.6 |
| 20260509122057 | 63 | 342 | 1.0 | 4.0 | 0.00 | 0.18 | 0.00 | 97 | 1014.8 |
| 20260509121600 | 63 | 338 | 0.0 | 2.0 | 0.00 | 0.18 | 0.00 | 97 | 1014.5 |
| 20260509121057 | 63 | 11 | 0.0 | 1.0 | 0.00 | 0.18 | 0.00 | 97 | 1014.0 |
| 20260509120600 | 62 | 0 | 0.0 | 1.0 | 0.00 | 0.18 | 0.00 | 97 | 1013.9 |
| 20260509120100 | 62 | 0 | 0.0 | 1.0 | 0.00 | 0.18 | 0.00 | 97 | 1013.7 |
| 20260509115558 | 62 | 0 | 0.0 | 1.0 | 0.00 | 0.18 | 0.00 | 97 | 1013.6 |
| 20260509115058 | 62 | 0 | 0.0 | 1.0 | 0.00 | 0.18 | 0.00 | 97 | 1013.4 |
| 20260509114600 | 62 | 0 | 0.0 | 1.0 | 0.00 | 0.18 | 0.00 | 97 | 1013.3 |
| 20260509114058 | 62 | 0 | 0.0 | 0.0 | 0.00 | 0.18 | 0.00 | 97 | 1013.3 |
| 20260509113558 | 62 | 0 | 0.0 | 0.0 | 0.00 | 0.18 | 0.00 | 97 | 1013.2 |
| 20260509113058 | 62 | 0 | 0.0 | 1.0 | 0.00 | 0.18 | 0.00 | 97 | 1013.3 |
| 20260509112557 | 62 | 0 | 0.0 | 1.0 | 0.00 | 0.18 | 0.00 | 97 | 1013.1 |
| 20260509112058 | 62 | 0 | 0.0 | 1.0 | 0.00 | 0.18 | 0.00 | 97 | 1012.9 |
| 20260509111557 | 62 | 0 | 0.0 | 1.0 | 0.00 | 0.18 | 0.00 | 97 | 1013.0 |
| 20260509111058 | 62 | 0 | 0.0 | 1.0 | 0.00 | 0.18 | 0.00 | 97 | 1013.0 |
| 20260509110600 | 62 | 0 | 0.0 | 1.0 | 0.00 | 0.18 | 0.00 | 97 | 1013.0 |
| 20260509110059 | 62 | 9 | 0.0 | 2.0 | 0.00 | 0.18 | 0.00 | 97 | 1012.9 |
| 20260509105557 | 62 | 0 | 0.0 | 2.0 | 0.00 | 0.18 | 0.00 | 97 | 1012.8 |
| 20260509105058 | 62 | 6 | 1.0 | 2.0 | 0.00 | 0.18 | 0.00 | 97 | 1012.8 |
| 20260509104559 | 62 | 138 | 0.0 | 0.0 | 0.00 | 0.18 | 0.00 | 97 | 1012.0 |
| 20260509104059 | 62 | 0 | 0.0 | 0.0 | 0.00 | 0.18 | 0.00 | 97 | 1012.0 |
| 20260509103558 | 62 | 0 | 0.0 | 0.0 | 0.00 | 0.18 | 0.00 | 97 | 1012.0 |
| 20260509103100 | 62 | 0 | 0.0 | 0.0 | 0.00 | 0.18 | 0.00 | 97 | 1011.8 |
| 20260509102558 | 62 | 0 | 0.0 | 0.0 | 0.00 | 0.18 | 0.00 | 97 | 1011.7 |
| 20260509102058 | 62 | 0 | 0.0 | 0.0 | 0.00 | 0.18 | 0.00 | 97 | 1011.9 |
| 20260509101605 | 62 | 0 | 0.0 | 0.0 | 0.00 | 0.18 | 0.00 | 97 | 1012.1 |
| 20260509101058 | 62 | 0 | 0.0 | 0.0 | 0.00 | 0.18 | 0.00 | 97 | 1012.2 |
| 20260509100558 | 62 | 0 | 0.0 | 0.0 | 0.00 | 0.18 | 0.00 | 97 | 1012.1 |
| 20260509100057 | 62 | 0 | 0.0 | 0.0 | 0.00 | 0.18 | 0.00 | 97 | 1012.2 |
| 20260509095558 | 62 | 0 | 0.0 | 1.0 | 0.00 | 0.18 | 0.00 | 97 | 1012.1 |
| 20260509095057 | 62 | 0 | 0.0 | 1.0 | 0.00 | 0.18 | 0.00 | 97 | 1011.7 |
| 20260509094558 | 62 | 0 | 0.0 | 1.0 | 0.00 | 0.18 | 0.00 | 97 | 1011.6 |
| 20260509094058 | 62 | 0 | 0.0 | 0.0 | 0.00 | 0.18 | 0.00 | 97 | 1011.7 |
| 20260509093558 | 62 | 0 | 0.0 | 1.0 | 0.00 | 0.18 | 0.00 | 97 | 1012.0 |
| 20260509093100 | 62 | 0 | 0.0 | 1.0 | 0.00 | 0.18 | 0.00 | 97 | 1012.3 |
| 20260509092557 | 62 | 138 | 0.0 | 1.0 | 0.00 | 0.18 | 0.00 | 97 | 1012.4 |
| 20260509092058 | 62 | 0 | 0.0 | 0.0 | 0.00 | 0.18 | 0.00 | 97 | 1012.7 |
| 20260509091556 | 62 | 0 | 0.0 | 0.0 | 0.00 | 0.18 | 0.00 | 97 | 1012.6 |
| 20260509091058 | 62 | 0 | 0.0 | 0.0 | 0.00 | 0.18 | 0.00 | 97 | 1012.7 |
| 20260509090558 | 62 | 0 | 0.0 | 0.0 | 0.00 | 0.18 | 0.00 | 97 | 1012.7 |
| 20260509090057 | 62 | 0 | 0.0 | 1.0 | 0.00 | 0.18 | 0.00 | 97 | 1012.6 |
| 20260509085558 | 61 | 0 | 0.0 | 3.0 | 0.00 | 0.18 | 0.00 | 97 | 1012.8 |
| 20260509085100 | 61 | 0 | 1.0 | 3.0 | 0.00 | 0.18 | 0.00 | 97 | 1012.7 |
| 20260509084600 | 61 | 155 | 0.0 | 2.0 | 0.00 | 0.18 | 0.00 | 97 | 1012.8 |
| 20260509084058 | 61 | 145 | 1.0 | 2.0 | 0.00 | 0.18 | 0.00 | 97 | 1012.7 |
| 20260509083557 | 62 | 142 | 1.0 | 2.0 | 0.00 | 0.18 | 0.00 | 97 | 1013.0 |
| 20260509083055 | 62 | 147 | 0.0 | 0.0 | 0.00 | 0.18 | 0.00 | 97 | 1013.1 |
| 20260509082557 | 62 | 0 | 0.0 | 0.0 | 0.00 | 0.18 | 0.00 | 97 | 1013.2 |
| 20260509082057 | 62 | 0 | 0.0 | 0.0 | 0.00 | 0.18 | 0.00 | 97 | 1013.0 |
| 20260509081558 | 62 | 0 | 0.0 | 0.0 | 0.00 | 0.18 | 0.00 | 97 | 1013.0 |
| 20260509081059 | 61 | 0 | 0.0 | 0.0 | 0.00 | 0.18 | 0.00 | 97 | 1013.2 |
| 20260509080558 | 61 | 0 | 0.0 | 1.0 | 0.00 | 0.18 | 0.00 | 97 | 1013.2 |
| 20260509080057 | 61 | 0 | 0.0 | 1.0 | 0.00 | 0.18 | 0.00 | 97 | 1012.9 |
| 20260509075558 | 61 | 0 | 0.0 | 2.0 | 0.00 | 0.18 | 0.00 | 97 | 1012.9 |
| 20260509075058 | 61 | 146 | 0.0 | 2.0 | 0.00 | 0.18 | 0.00 | 97 | 1012.8 |
| 20260509074605 | 61 | 147 | 1.0 | 2.0 | 0.00 | 0.18 | 0.00 | 97 | 1012.8 |
| 20260509074057 | 61 | 145 | 1.0 | 2.0 | 0.00 | 0.18 | 0.00 | 97 | 1012.7 |
| 20260509073558 | 61 | 0 | 0.0 | 0.0 | 0.00 | 0.18 | 0.00 | 97 | 1012.6 |
| 20260509073102 | 61 | 146 | 0.0 | 1.0 | 0.00 | 0.18 | 0.00 | 97 | 1012.9 |
| 20260509072558 | 61 | 0 | 0.0 | 2.0 | 0.00 | 0.18 | 0.00 | 97 | 1013.1 |
| 20260509072059 | 61 | 146 | 0.0 | 2.0 | 0.00 | 0.18 | 0.00 | 97 | 1013.0 |
| 20260509071607 | 61 | 150 | 1.0 | 2.0 | 0.00 | 0.18 | 0.00 | 97 | 1012.8 |
| 20260509071058 | 61 | 149 | 1.0 | 1.0 | 0.00 | 0.18 | 0.00 | 97 | 1012.9 |
| 20260509070558 | 61 | 148 | 0.0 | 1.0 | 0.00 | 0.18 | 0.00 | 97 | 1012.7 |
| 20260509070059 | 61 | 146 | 0.0 | 2.0 | 0.00 | 0.18 | 0.00 | 97 | 1012.8 |
| 20260509065601 | 61 | 140 | 0.0 | 3.0 | 0.00 | 0.18 | 0.00 | 97 | 1012.9 |
| 20260509065058 | 61 | 0 | 1.0 | 3.0 | 0.00 | 0.18 | 0.00 | 97 | 1013.1 |
| 20260509064614 | 61 | 143 | 1.0 | 3.0 | 0.00 | 0.18 | 0.00 | 97 | 1013.1 |
| 20260509064059 | 61 | 144 | 2.0 | 3.0 | 0.00 | 0.18 | 0.00 | 97 | 1013.2 |
| 20260509063559 | 61 | 142 | 1.0 | 2.0 | 0.00 | 0.18 | 0.00 | 97 | 1013.1 |
| 20260509063057 | 61 | 139 | 2.0 | 2.0 | 0.00 | 0.18 | 0.00 | 97 | 1013.4 |
| 20260509062558 | 61 | 145 | 0.0 | 1.0 | 0.00 | 0.18 | 0.00 | 97 | 1013.5 |
| 20260509062058 | 61 | 0 | 0.0 | 1.0 | 0.00 | 0.18 | 0.00 | 97 | 1013.4 |
| 20260509061622 | 61 | 0 | 0.0 | 0.0 | 0.00 | 0.18 | 0.00 | 97 | 1013.4 |
| 20260509061057 | 61 | 0 | 0.0 | 1.0 | 0.00 | 0.18 | 0.00 | 97 | 1013.4 |
| 20260509060558 | 61 | 0 | 0.0 | 1.0 | 0.00 | 0.18 | 0.00 | 97 | 1013.2 |
| 20260509060058 | 61 | 143 | 0.0 | 1.0 | 0.00 | 0.18 | 0.00 | 97 | 1013.0 |
| 20260509055558 | 61 | 0 | 0.0 | 1.0 | 0.00 | 0.18 | 0.00 | 97 | 1013.2 |
| 20260509055059 | 61 | 0 | 0.0 | 0.0 | 0.00 | 0.18 | 0.00 | 97 | 1013.3 |
| 20260509054557 | 61 | 0 | 0.0 | 0.0 | 0.00 | 0.18 | 0.00 | 97 | 1013.3 |
| 20260509054059 | 61 | 0 | 0.0 | 1.0 | 0.00 | 0.18 | 0.00 | 97 | 1013.5 |
| 20260509053557 | 61 | 0 | 0.0 | 1.0 | 0.00 | 0.18 | 0.00 | 97 | 1013.5 |
| 20260509053059 | 61 | 143 | 0.0 | 1.0 | 0.00 | 0.18 | 0.00 | 97 | 1013.5 |
| 20260509052556 | 61 | 0 | 0.0 | 2.0 | 0.00 | 0.18 | 0.00 | 97 | 1013.5 |
| 20260509052058 | 61 | 0 | 0.0 | 2.0 | 0.00 | 0.18 | 0.00 | 97 | 1013.5 |
| 20260509051601 | 61 | 141 | 0.0 | 1.0 | 0.00 | 0.18 | 0.00 | 97 | 1013.4 |
| 20260509051058 | 61 | 0 | 0.0 | 0.0 | 0.00 | 0.18 | 0.00 | 97 | 1013.4 |
| 20260509050559 | 61 | 0 | 0.0 | 1.0 | 0.00 | 0.18 | 0.00 | 97 | 1013.3 |
| 20260509050108 | 61 | 0 | 0.0 | 1.0 | 0.00 | 0.18 | 0.00 | 97 | 1013.4 |
| 20260509045556 | 61 | 0 | 0.0 | 1.0 | 0.00 | 0.18 | 0.18 | 97 | 1013.3 |
| 20260509045056 | 61 | 0 | 0.0 | 0.0 | 0.00 | 0.18 | 0.18 | 97 | 1013.4 |
| 20260509044557 | 61 | 0 | 0.0 | 0.0 | 0.00 | 0.18 | 0.18 | 97 | 1013.1 |
| 20260509044056 | 61 | 0 | 0.0 | 0.0 | 0.00 | 0.18 | 0.18 | 97 | 1013.3 |
| 20260509043556 | 61 | 0 | 0.0 | 1.0 | 0.00 | 0.18 | 0.18 | 97 | 1013.3 |
| 20260509043106 | 61 | 0 | 0.0 | 1.0 | 0.00 | 0.18 | 0.18 | 97 | 1013.1 |
| 20260509042556 | 61 | 0 | 0.0 | 1.0 | 0.00 | 0.18 | 0.18 | 97 | 1013.0 |
| 20260509042056 | 61 | 91 | 0.0 | 1.0 | 0.00 | 0.18 | 0.18 | 97 | 1013.1 |
| 20260509041559 | 61 | 0 | 0.0 | 1.0 | 0.00 | 0.18 | 0.18 | 97 | 1013.2 |
| 20260509041101 | 61 | 0 | 0.0 | 1.0 | 0.00 | 0.18 | 0.18 | 97 | 1013.6 |
| 20260509040558 | 61 | 0 | 0.0 | 2.0 | 0.00 | 0.18 | 0.18 | 97 | 1013.4 |
| 20260509040057 | 61 | 0 | 0.0 | 2.0 | 0.00 | 0.18 | 0.18 | 97 | 1013.4 |
| 20260509035605 | 61 | 0 | 0.0 | 1.0 | 0.00 | 0.18 | 0.18 | 97 | 1013.4 |
| 20260509035057 | 61 | 0 | 0.0 | 1.0 | 0.00 | 0.18 | 0.18 | 97 | 1013.4 |
| 20260509034557 | 61 | 0 | 0.0 | 1.0 | 0.00 | 0.18 | 0.18 | 97 | 1013.4 |
| 20260509034056 | 62 | 0 | 0.0 | 1.0 | 0.00 | 0.18 | 0.18 | 97 | 1013.6 |
| 20260509033556 | 62 | 136 | 0.0 | 0.0 | 0.00 | 0.18 | 0.18 | 97 | 1013.7 |
| 20260509033059 | 61 | 0 | 0.0 | 0.0 | 0.00 | 0.18 | 0.18 | 97 | 1013.9 |
| 20260509032558 | 61 | 0 | 0.0 | 0.0 | 0.00 | 0.18 | 0.18 | 97 | 1013.8 |
| 20260509032055 | 62 | 0 | 0.0 | 0.0 | 0.00 | 0.18 | 0.18 | 97 | 1013.6 |
| 20260509031558 | 61 | 0 | 0.0 | 0.0 | 0.00 | 0.18 | 0.18 | 97 | 1013.4 |
| 20260509031056 | 61 | 0 | 0.0 | 0.0 | 0.00 | 0.18 | 0.18 | 97 | 1013.6 |
| 20260509030556 | 62 | 0 | 0.0 | 0.0 | 0.00 | 0.18 | 0.18 | 97 | 1013.9 |
| 20260509030056 | 62 | 0 | 0.0 | 0.0 | 0.00 | 0.18 | 0.18 | 97 | 1013.7 |
| 20260509025558 | 62 | 0 | 0.0 | 1.0 | 0.00 | 0.18 | 0.18 | 97 | 1013.8 |
| 20260509025055 | 62 | 0 | 0.0 | 1.0 | 0.00 | 0.18 | 0.18 | 97 | 1013.8 |
| 20260509024558 | 62 | 0 | 0.0 | 1.0 | 0.00 | 0.18 | 0.18 | 97 | 1014.2 |
| 20260509024059 | 62 | 339 | 0.0 | 1.0 | 0.00 | 0.18 | 0.18 | 97 | 1013.9 |
| 20260509023556 | 62 | 316 | 0.0 | 1.0 | 0.00 | 0.18 | 0.18 | 97 | 1014.1 |
| 20260509023055 | 62 | 0 | 0.0 | 1.0 | 0.00 | 0.18 | 0.18 | 97 | 1014.0 |
| 20260509022556 | 62 | 0 | 0.0 | 2.0 | 0.00 | 0.18 | 0.18 | 97 | 1013.7 |
| 20260509022055 | 62 | 0 | 0.0 | 3.0 | 0.00 | 0.18 | 0.18 | 97 | 1013.6 |
| 20260509021557 | 62 | 354 | 0.0 | 3.0 | 0.00 | 0.18 | 0.18 | 97 | 1013.8 |
| 20260509021056 | 62 | 0 | 2.0 | 3.0 | 0.00 | 0.18 | 0.18 | 97 | 1013.6 |
| 20260509020558 | 62 | 139 | 0.0 | 3.0 | 0.00 | 0.18 | 0.18 | 97 | 1013.9 |
| 20260509020058 | 62 | 347 | 0.0 | 3.0 | 0.00 | 0.18 | 0.18 | 97 | 1014.0 |
| 20260509015555 | 62 | 0 | 1.0 | 8.0 | 0.00 | 0.18 | 0.18 | 97 | 1013.8 |
| 20260509015056 | 62 | 0 | 1.0 | 8.0 | 0.00 | 0.18 | 0.18 | 97 | 1014.2 |
| 20260509014558 | 62 | 347 | 4.0 | 8.0 | 0.00 | 0.18 | 0.18 | 97 | 1014.6 |
| 20260509014055 | 62 | 345 | 1.0 | 14.0 | 0.00 | 0.18 | 0.18 | 97 | 1013.5 |
| 20260509013557 | 62 | 138 | 4.0 | 14.0 | 0.00 | 0.18 | 0.18 | 97 | 1012.1 |
| 20260509013059 | 62 | 166 | 7.0 | 14.0 | 0.00 | 0.18 | 0.18 | 97 | 1011.4 |
| 20260509012557 | 62 | 134 | 4.0 | 9.0 | 0.00 | 0.18 | 0.18 | 97 | 1011.9 |
| 20260509012101 | 62 | 107 | 2.0 | 5.0 | 0.00 | 0.18 | 0.18 | 97 | 1012.6 |
| 20260509011556 | 62 | 142 | 0.0 | 3.0 | 0.00 | 0.18 | 0.18 | 97 | 1013.0 |
| 20260509011055 | 62 | 92 | 0.0 | 3.0 | 0.00 | 0.18 | 0.18 | 97 | 1013.1 |
| 20260509010555 | 62 | 0 | 1.0 | 3.0 | 0.00 | 0.18 | 0.18 | 97 | 1013.4 |
| 20260509010104 | 62 | 0 | 0.0 | 2.0 | 0.00 | 0.18 | 0.18 | 97 | 1013.5 |
| 20260509005556 | 62 | 0 | 0.0 | 1.0 | 0.00 | 0.18 | 0.18 | 97 | 1013.7 |
| 20260509005058 | 62 | 0 | 0.0 | 1.0 | 0.00 | 0.18 | 0.18 | 97 | 1013.8 |
| 20260509004621 | 62 | 0 | 0.0 | 1.0 | 0.00 | 0.18 | 0.18 | 97 | 1014.0 |
| 20260509004055 | 62 | 0 | 0.0 | 1.0 | 0.00 | 0.18 | 0.18 | 97 | 1014.0 |
| 20260509003602 | 62 | 0 | 0.0 | 1.0 | 0.01 | 0.18 | 0.18 | 97 | 1013.7 |
| 20260509003057 | 62 | 0 | 0.0 | 1.0 | 0.01 | 0.18 | 0.18 | 97 | 1013.2 |
| 20260509002554 | 62 | 0 | 0.0 | 1.0 | 0.01 | 0.18 | 0.18 | 97 | 1013.4 |
| 20260509002058 | 62 | 0 | 0.0 | 3.0 | 0.01 | 0.18 | 0.18 | 97 | 1013.4 |
| 20260509001556 | 62 | 0 | 0.0 | 3.0 | 0.01 | 0.18 | 0.18 | 97 | 1013.5 |
| 20260509001055 | 62 | 304 | 0.0 | 2.0 | 0.01 | 0.18 | 0.18 | 97 | 1013.9 |
| 20260509000555 | 62 | 316 | 1.0 | 6.0 | 0.02 | 0.18 | 0.18 | 97 | 1013.7 |
| 20260509000056 | 62 | 10 | 1.0 | 12.0 | 0.02 | 0.18 | 0.18 | 97 | 1012.8 |
| 20260508235558 | 63 | 97 | 4.0 | 14.0 | 0.02 | 0.18 | 0.18 | 97 | 1012.2 |
| 20260508235059 | 63 | 117 | 6.0 | 14.0 | 0.02 | 0.18 | 0.18 | 97 | 1012.0 |
| 20260508234606 | 63 | 151 | 7.0 | 14.0 | 0.03 | 0.18 | 0.18 | 97 | 1012.0 |
| 20260508234100 | 63 | 162 | 5.0 | 10.0 | 0.03 | 0.18 | 0.18 | 97 | 1013.1 |
| 20260508233559 | 63 | 133 | 1.0 | 5.0 | 0.02 | 0.17 | 0.17 | 97 | 1014.1 |
| 20260508233058 | 64 | 136 | 3.0 | 4.0 | 0.03 | 0.17 | 0.17 | 97 | 1014.7 |
| 20260508232558 | 64 | 141 | 2.0 | 4.0 | 0.03 | 0.17 | 0.17 | 97 | 1015.2 |
| 20260508232058 | 64 | 122 | 2.0 | 3.0 | 0.04 | 0.17 | 0.17 | 97 | 1015.3 |
| 20260508231558 | 64 | 146 | 1.0 | 3.0 | 0.04 | 0.17 | 0.17 | 97 | 1015.6 |
| 20260508231056 | 64 | 152 | 1.0 | 2.0 | 0.05 | 0.17 | 0.17 | 97 | 1015.6 |
| 20260508230559 | 64 | 144 | 0.0 | 2.0 | 0.04 | 0.16 | 0.16 | 97 | 1015.8 |
| 20260508230058 | 64 | 148 | 0.0 | 2.0 | 0.04 | 0.16 | 0.16 | 97 | 1015.8 |
| 20260508225558 | 64 | 0 | 1.0 | 2.0 | 0.04 | 0.16 | 0.16 | 96 | 1015.7 |
| 20260508225057 | 65 | 0 | 0.0 | 1.0 | 0.05 | 0.16 | 0.16 | 97 | 1016.2 |
| 20260508224558 | 65 | 0 | 0.0 | 2.0 | 0.04 | 0.15 | 0.15 | 97 | 1016.4 |
| 20260508224057 | 65 | 0 | 0.0 | 2.0 | 0.04 | 0.15 | 0.15 | 97 | 1016.4 |
| 20260508223558 | 65 | 0 | 0.0 | 2.0 | 0.04 | 0.15 | 0.15 | 97 | 1016.5 |
| 20260508223058 | 65 | 224 | 1.0 | 2.0 | 0.03 | 0.14 | 0.14 | 97 | 1016.5 |
| 20260508222557 | 65 | 0 | 0.0 | 1.0 | 0.04 | 0.14 | 0.14 | 97 | 1016.2 |
| 20260508222057 | 65 | 201 | 0.0 | 1.0 | 0.03 | 0.13 | 0.13 | 97 | 1016.0 |
| 20260508221558 | 65 | 0 | 0.0 | 0.0 | 0.03 | 0.13 | 0.13 | 97 | 1016.0 |
| 20260508221056 | 65 | 0 | 0.0 | 0.0 | 0.02 | 0.12 | 0.12 | 97 | 1016.2 |
| 20260508220559 | 66 | 0 | 0.0 | 0.0 | 0.02 | 0.12 | 0.12 | 97 | 1016.2 |
| 20260508220100 | 66 | 0 | 0.0 | 0.0 | 0.02 | 0.12 | 0.12 | 97 | 1016.0 |
| 20260508215556 | 66 | 0 | 0.0 | 1.0 | 0.03 | 0.12 | 0.12 | 97 | 1015.9 |
| 20260508215055 | 66 | 0 | 0.0 | 1.0 | 0.02 | 0.11 | 0.11 | 96 | 1015.9 |
| 20260508214614 | 66 | 208 | 0.0 | 1.0 | 0.02 | 0.11 | 0.11 | 96 | 1016.1 |
| 20260508214055 | 66 | 0 | 0.0 | 1.0 | 0.02 | 0.11 | 0.11 | 96 | 1016.2 |
| 20260508213555 | 66 | 230 | 0.0 | 1.0 | 0.02 | 0.11 | 0.11 | 96 | 1016.0 |
| 20260508213057 | 66 | 295 | 0.0 | 0.0 | 0.01 | 0.10 | 0.10 | 96 | 1015.9 |
| 20260508212559 | 66 | 0 | 0.0 | 0.0 | 0.01 | 0.10 | 0.10 | 97 | 1015.7 |
| 20260508212056 | 66 | 0 | 0.0 | 1.0 | 0.01 | 0.10 | 0.10 | 96 | 1015.7 |